Terminal Aerodrome Forecast
Issued by NWS

Home | Current Version | Previous Version | Text Only | Print | Product List | Glossary On
Versions: 1 2 3 4 5 6 7 8 9 10 11 12 13 14 15 16 17 18 19 20
000
FTUS43 KILX 260500
TAFCMI
TAF
KCMI 260528Z 2606/2706 15010KT P6SM OVC080
     FM261100 20010KT P6SM SCT080
     FM261500 21010KT P6SM SCT150
     FM270000 VRB06KT P6SM VCTS SCT050CB BKN080
      TEMPO 2702/2704 VRB25G40KT 3SM TSRA BR SCT025CB BKN040=

USA.gov is the U.S. government's official web portal to all federal, state and local government web resources and services.